createdAt,value
2023-05-21T00:01:54.243Z,14.63
2023-05-21T00:04:20.783Z,14.61
2023-05-21T00:06:47.374Z,14.59
2023-05-21T00:09:13.966Z,14.53
2023-05-21T00:11:40.714Z,14.48
2023-05-21T00:14:07.381Z,14.42
2023-05-21T00:16:33.983Z,14.34
2023-05-21T00:19:00.603Z,14.26
2023-05-21T00:21:27.136Z,14.20
2023-05-21T00:23:56.935Z,14.17
2023-05-21T00:26:26.435Z,14.21
2023-05-21T00:28:53.062Z,14.28
2023-05-21T00:31:19.687Z,14.29
2023-05-21T00:33:46.302Z,14.31
2023-05-21T00:36:14.419Z,14.36
2023-05-21T00:38:44.328Z,14.38
2023-05-21T00:41:11.142Z,14.36
2023-05-21T00:43:40.378Z,14.40
2023-05-21T00:46:12.086Z,14.38
2023-05-21T00:48:39.808Z,14.32
2023-05-21T00:51:06.544Z,14.31
2023-05-21T00:53:35.099Z,14.32
2023-05-21T00:56:02.708Z,14.29
2023-05-21T00:58:29.868Z,14.26
2023-05-21T01:00:56.682Z,14.23
2023-05-21T01:03:23.662Z,14.25
2023-05-21T01:05:53.433Z,14.24
2023-05-21T01:08:23.610Z,14.19
2023-05-21T01:10:50.686Z,14.18
2023-05-21T01:13:17.930Z,14.14
2023-05-21T01:15:45.540Z,14.10
2023-05-21T01:18:14.368Z,14.12
2023-05-21T01:20:42.531Z,14.10
2023-05-21T01:23:09.193Z,14.05
2023-05-21T01:25:38.654Z,14.01
2023-05-21T01:29:00.832Z,13.95
2023-05-21T01:31:42.527Z,13.94
2023-05-21T01:34:12.361Z,13.94
2023-05-21T01:36:43.697Z,13.94
2023-05-21T01:39:19.096Z,13.93
2023-05-21T01:41:47.852Z,13.91
2023-05-21T01:44:18.378Z,13.90
2023-05-21T01:46:47.567Z,13.91
2023-05-21T01:49:15.873Z,13.89
2023-05-21T01:51:43.070Z,13.85
2023-05-21T01:54:09.744Z,13.83
2023-05-21T01:56:37.075Z,13.74
2023-05-21T01:59:03.645Z,13.67
2023-05-21T02:01:30.624Z,13.58
2023-05-21T02:03:58.156Z,13.46
2023-05-21T02:06:24.891Z,13.38
2023-05-21T02:08:52.072Z,13.34
2023-05-21T02:11:18.642Z,13.33
2023-05-21T02:13:46.205Z,13.33
2023-05-21T02:16:14.979Z,13.35
2023-05-21T02:18:46.413Z,13.33
2023-05-21T02:21:13.057Z,13.38
2023-05-21T02:23:39.684Z,13.43
2023-05-21T02:26:06.447Z,13.53
2023-05-21T02:28:34.120Z,13.57
2023-05-21T02:31:01.200Z,13.64
2023-05-21T02:33:27.826Z,13.67
2023-05-21T02:35:54.368Z,13.62
2023-05-21T02:38:23.118Z,13.61
2023-05-21T02:40:51.093Z,13.59
2023-05-21T02:43:17.729Z,13.61
2023-05-21T02:45:44.323Z,13.64
2023-05-21T02:48:11.494Z,13.66
2023-05-21T02:50:38.176Z,13.69
2023-05-21T02:53:04.734Z,13.67
2023-05-21T02:55:31.342Z,13.64
2023-05-21T02:57:57.912Z,13.65
2023-05-21T03:00:24.460Z,13.67
2023-05-21T03:02:51.180Z,13.65
2023-05-21T03:05:17.805Z,13.64
2023-05-21T03:07:44.395Z,13.61
2023-05-21T03:10:11.045Z,13.60
2023-05-21T03:12:38.178Z,13.60
2023-05-21T03:15:05.248Z,13.59
2023-05-21T03:17:32.228Z,13.55
2023-05-21T03:19:58.853Z,13.55
2023-05-21T03:22:25.405Z,13.56
2023-05-21T03:24:53.539Z,13.56
2023-05-21T03:27:20.112Z,13.55
2023-05-21T03:29:46.703Z,13.53
2023-05-21T03:32:14.028Z,13.50
2023-05-21T03:34:40.773Z,13.44
2023-05-21T03:37:07.326Z,13.41
2023-05-21T03:39:33.925Z,13.41
2023-05-21T03:42:00.494Z,13.43
2023-05-21T03:44:27.150Z,13.44
2023-05-21T03:46:53.673Z,13.46
2023-05-21T03:49:20.807Z,13.48
2023-05-21T03:51:47.356Z,13.49
2023-05-21T03:54:13.917Z,13.50
2023-05-21T03:56:40.596Z,13.53
2023-05-21T03:59:07.257Z,13.58
2023-05-21T04:01:34.014Z,13.63
2023-05-21T04:04:00.827Z,13.68
2023-05-21T04:06:28.096Z,13.72
2023-05-21T04:08:54.664Z,13.76
2023-05-21T04:11:21.223Z,13.80
2023-05-21T04:13:48.204Z,13.91
2023-05-21T04:16:18.996Z,13.97
2023-05-21T04:18:46.975Z,14.06
2023-05-21T04:21:13.755Z,14.14
2023-05-21T04:23:40.385Z,14.22
2023-05-21T04:26:07.712Z,14.30
2023-05-21T04:28:35.484Z,14.36
2023-05-21T04:31:02.161Z,14.45
2023-05-21T04:33:28.888Z,14.51
2023-05-21T04:35:55.559Z,14.62
2023-05-21T04:38:22.150Z,14.69
2023-05-21T04:40:51.948Z,14.80
2023-05-21T04:43:25.527Z,14.88
2023-05-21T04:45:54.961Z,14.97
2023-05-21T04:48:24.699Z,15.08
2023-05-21T04:50:52.074Z,15.18
2023-05-21T04:53:18.694Z,15.27
2023-05-21T04:55:46.698Z,15.37
2023-05-21T04:58:13.623Z,15.39
2023-05-21T05:00:42.224Z,15.49
2023-05-21T05:03:08.973Z,15.58
2023-05-21T05:05:35.886Z,15.70
2023-05-21T05:08:02.839Z,15.84
2023-05-21T05:10:29.592Z,15.92
2023-05-21T05:12:56.138Z,16.00
2023-05-21T05:15:30.982Z,16.06
2023-05-21T05:18:12.168Z,16.18
2023-05-21T05:20:38.919Z,16.27
2023-05-21T05:23:05.532Z,16.36
2023-05-21T05:25:33.087Z,16.45
2023-05-21T05:27:59.793Z,16.56
2023-05-21T05:30:26.346Z,16.63
2023-05-21T05:32:52.939Z,16.80
2023-05-21T05:35:19.694Z,17.10
2023-05-21T05:37:46.290Z,17.31
2023-05-21T05:40:12.880Z,17.39
2023-05-21T05:42:39.519Z,17.55
2023-05-21T05:45:06.759Z,17.76
2023-05-21T05:47:33.380Z,17.96
2023-05-21T05:50:02.250Z,18.11
2023-05-21T05:52:32.080Z,18.13
2023-05-21T05:54:58.691Z,18.12
2023-05-21T05:57:25.208Z,18.17
2023-05-21T05:59:51.753Z,18.13
2023-05-21T06:02:18.459Z,17.95
2023-05-21T06:04:45.004Z,18.00
2023-05-21T06:07:11.547Z,18.05
2023-05-21T06:09:38.981Z,18.10
2023-05-21T06:12:07.076Z,18.34
2023-05-21T06:14:33.846Z,18.59
2023-05-21T06:17:00.458Z,18.79
2023-05-21T06:19:27.043Z,19.03
2023-05-21T06:21:53.649Z,19.19
2023-05-21T06:24:21.200Z,19.34
2023-05-21T06:26:47.747Z,19.48
2023-05-21T06:29:15.504Z,19.59
2023-05-21T06:31:42.212Z,19.89
2023-05-21T06:34:08.790Z,20.02
2023-05-21T06:36:35.449Z,19.83
2023-05-21T06:39:03.241Z,19.91
2023-05-21T06:41:29.900Z,20.07
2023-05-21T06:43:56.818Z,20.17
2023-05-21T06:46:23.429Z,20.35
2023-05-21T06:48:50.118Z,20.52
2023-05-21T06:51:16.700Z,20.57
2023-05-21T06:53:43.296Z,20.65
2023-05-21T06:56:09.828Z,20.84
2023-05-21T06:58:36.492Z,20.92
2023-05-21T07:01:03.170Z,20.99
2023-05-21T07:03:29.872Z,21.31
2023-05-21T07:05:57.575Z,21.71
2023-05-21T07:08:24.344Z,22.06
2023-05-21T07:10:50.971Z,22.30
2023-05-21T07:13:17.617Z,22.64
2023-05-21T07:15:44.194Z,22.74
2023-05-21T07:18:12.085Z,23.60
2023-05-21T07:20:38.931Z,24.62
2023-05-21T07:23:05.462Z,25.16
2023-05-21T07:25:32.001Z,25.53
2023-05-21T07:27:58.589Z,25.97
2023-05-21T07:30:25.210Z,26.18
2023-05-21T07:32:52.011Z,26.93
2023-05-21T07:35:19.567Z,27.31
2023-05-21T07:37:46.733Z,28.96
2023-05-21T07:40:13.827Z,30.26
2023-05-21T07:42:42.854Z,30.33
2023-05-21T07:45:09.806Z,31.27
2023-05-21T07:47:36.403Z,31.34
2023-05-21T07:50:03.206Z,31.95
2023-05-21T07:52:29.854Z,31.81
2023-05-21T07:54:56.398Z,31.84
2023-05-21T07:57:23.392Z,32.67
2023-05-21T07:59:49.940Z,32.68
2023-05-21T08:02:16.705Z,31.86
2023-05-21T08:04:44.481Z,30.25
2023-05-21T08:07:11.201Z,29.16
2023-05-21T08:09:37.841Z,27.80
2023-05-21T08:12:04.636Z,28.87
2023-05-21T08:14:31.235Z,30.20
2023-05-21T08:16:57.880Z,30.58
2023-05-21T08:19:24.431Z,30.84
2023-05-21T08:21:52.856Z,29.64
2023-05-21T08:24:19.751Z,28.55
2023-05-21T08:26:47.495Z,27.81
2023-05-21T08:29:14.140Z,27.13
2023-05-21T08:31:40.753Z,27.50
2023-05-21T08:34:07.330Z,27.50
2023-05-21T08:36:33.949Z,28.78
2023-05-21T08:39:00.478Z,30.68
2023-05-21T08:41:30.850Z,31.25
2023-05-21T08:43:58.224Z,31.20
2023-05-21T08:46:26.628Z,33.08
2023-05-21T08:48:55.079Z,30.79
2023-05-21T08:51:22.654Z,30.92
2023-05-21T08:53:50.568Z,31.34
2023-05-21T08:56:18.183Z,31.58
2023-05-21T08:58:46.740Z,31.29
2023-05-21T09:01:13.415Z,32.76
2023-05-21T09:03:41.101Z,33.51
2023-05-21T09:06:11.420Z,32.95
2023-05-21T09:08:42.476Z,31.59
2023-05-21T09:11:09.017Z,32.06
2023-05-21T09:13:38.964Z,32.85
2023-05-21T09:16:07.098Z,32.82
2023-05-21T09:18:33.751Z,33.51
2023-05-21T09:21:23.930Z,33.90
2023-05-21T09:23:57.772Z,34.62
2023-05-21T09:26:25.735Z,34.24
2023-05-21T09:28:57.752Z,35.48
2023-05-21T09:31:25.932Z,36.42
2023-05-21T09:33:52.926Z,36.95
2023-05-21T09:36:22.278Z,36.10
2023-05-21T09:38:50.373Z,35.24
2023-05-21T09:41:21.172Z,34.97
2023-05-21T09:43:48.986Z,36.01
2023-05-21T09:46:15.608Z,36.49
2023-05-21T09:48:43.222Z,36.00
2023-05-21T09:51:14.081Z,37.08
2023-05-21T09:53:49.671Z,36.59
2023-05-21T09:56:19.410Z,35.55
2023-05-21T09:58:46.504Z,36.44
2023-05-21T10:01:13.646Z,37.12
2023-05-21T10:03:41.606Z,35.91
2023-05-21T10:06:10.169Z,36.84
2023-05-21T10:08:41.267Z,36.39
2023-05-21T10:11:09.123Z,36.15
2023-05-21T10:13:41.678Z,36.69
2023-05-21T10:16:08.555Z,36.63
2023-05-21T10:18:37.365Z,36.82
2023-05-21T10:21:04.967Z,38.04
2023-05-21T10:23:32.101Z,37.77
2023-05-21T10:25:59.899Z,38.14
2023-05-21T10:28:31.313Z,37.92
2023-05-21T10:30:57.918Z,37.36
2023-05-21T10:33:25.686Z,36.83
2023-05-21T10:35:54.459Z,36.61
2023-05-21T10:38:21.224Z,36.10
2023-05-21T10:40:49.162Z,36.36
2023-05-21T10:43:53.179Z,36.81
2023-05-21T10:46:32.055Z,38.07
2023-05-21T10:49:16.616Z,37.08
2023-05-21T10:51:52.229Z,35.96
2023-05-21T10:54:38.715Z,36.36
2023-05-21T10:57:39.975Z,37.55
2023-05-21T11:00:09.646Z,37.83
2023-05-21T11:02:37.014Z,36.34
2023-05-21T11:05:04.582Z,37.28
2023-05-21T11:07:59.056Z,38.37
2023-05-21T11:10:38.790Z,39.07
2023-05-21T11:13:12.102Z,38.55
2023-05-21T11:15:57.220Z,38.26
2023-05-21T11:18:24.524Z,38.31
2023-05-21T11:20:51.760Z,36.11
2023-05-21T11:23:21.224Z,35.24
2023-05-21T11:26:01.396Z,36.74
2023-05-21T11:28:34.421Z,36.64
2023-05-21T11:31:26.972Z,36.37
2023-05-21T11:34:22.178Z,37.01
2023-05-21T11:36:50.158Z,38.18
2023-05-21T11:39:22.537Z,37.51
2023-05-21T11:42:00.467Z,37.81
2023-05-21T11:44:42.669Z,36.76
2023-05-21T11:47:15.018Z,38.71
2023-05-21T11:49:42.403Z,38.66
2023-05-21T11:52:10.614Z,38.38
2023-05-21T11:54:43.222Z,37.62
2023-05-21T11:57:10.567Z,37.90
2023-05-21T11:59:37.395Z,38.15
2023-05-21T12:02:04.990Z,38.43
2023-05-21T12:04:36.414Z,38.56
2023-05-21T12:07:10.073Z,37.68
2023-05-21T12:09:40.991Z,37.13
2023-05-21T12:12:13.359Z,35.58
2023-05-21T12:14:40.437Z,34.22
2023-05-21T12:17:07.669Z,33.97
2023-05-21T12:19:35.664Z,31.84
2023-05-21T12:22:21.825Z,31.31
2023-05-21T12:25:04.449Z,31.29
2023-05-21T12:27:39.071Z,33.18
2023-05-21T12:30:14.650Z,31.78
2023-05-21T12:32:53.287Z,30.95
2023-05-21T12:35:24.555Z,29.95
2023-05-21T12:41:54.796Z,29.61
2023-05-21T12:55:35.704Z,28.90
2023-05-21T13:01:50.059Z,28.41
2023-05-21T13:04:19.594Z,28.20
2023-05-21T13:07:10.742Z,27.73
2023-05-21T13:09:37.269Z,27.32
2023-05-21T13:16:19.244Z,27.32
2023-05-21T13:25:35.196Z,26.95
2023-05-21T13:28:03.934Z,26.97
2023-05-21T13:30:30.837Z,27.04
2023-05-21T13:32:57.570Z,26.86
2023-05-21T13:35:24.311Z,26.87
2023-05-21T13:37:51.142Z,26.88
2023-05-21T13:40:18.124Z,26.88
2023-05-21T13:42:46.464Z,26.80
2023-05-21T13:45:16.377Z,26.83
2023-05-21T13:47:44.340Z,26.84
2023-05-21T13:50:11.318Z,26.86
2023-05-21T13:52:38.370Z,26.77
2023-05-21T13:55:05.914Z,26.67
2023-05-21T13:57:32.680Z,26.72
2023-05-21T14:00:00.079Z,26.68
2023-05-21T14:02:26.928Z,26.73
2023-05-21T14:04:54.007Z,26.75
2023-05-21T14:07:21.560Z,26.76
2023-05-21T14:09:48.332Z,26.62
2023-05-21T14:12:14.826Z,26.58
2023-05-21T14:14:42.090Z,26.55
2023-05-21T14:17:08.655Z,26.53
2023-05-21T14:19:35.459Z,26.57
2023-05-21T14:22:02.119Z,26.52
2023-05-21T14:24:28.680Z,26.52
2023-05-21T14:26:55.203Z,26.55
2023-05-21T14:29:21.768Z,26.56
2023-05-21T14:31:48.572Z,26.54
2023-05-21T14:34:15.188Z,26.46
2023-05-21T14:36:41.811Z,26.48
2023-05-21T14:39:08.354Z,26.44
2023-05-21T14:41:39.248Z,26.42
2023-05-21T14:44:05.769Z,26.50
2023-05-21T14:46:32.679Z,26.32
2023-05-21T14:49:00.524Z,26.31
2023-05-21T14:51:27.151Z,26.21
2023-05-21T14:53:53.720Z,26.15
2023-05-21T14:56:21.930Z,26.18
2023-05-21T14:58:48.706Z,26.30
2023-05-21T15:01:15.564Z,26.28
2023-05-21T15:03:42.207Z,26.26
2023-05-21T15:06:09.123Z,26.22
2023-05-21T15:08:35.874Z,26.13
2023-05-21T15:11:02.458Z,26.06
2023-05-21T15:13:29.106Z,26.02
2023-05-21T15:15:55.811Z,25.98
2023-05-21T15:18:24.676Z,26.00
2023-05-21T15:20:51.592Z,25.93
2023-05-21T15:23:18.231Z,25.87
2023-05-21T15:25:45.581Z,25.80
2023-05-21T15:28:12.672Z,25.74
2023-05-21T15:30:39.771Z,25.72
2023-05-21T15:33:06.560Z,25.72
2023-05-21T15:35:35.489Z,25.69
2023-05-21T15:38:02.736Z,25.68
2023-05-21T15:40:29.314Z,25.66
2023-05-21T15:42:55.835Z,25.63
2023-05-21T15:45:22.445Z,25.61
2023-05-21T15:47:48.981Z,25.57
2023-05-21T15:50:15.661Z,25.51
2023-05-21T15:52:42.807Z,25.47
2023-05-21T15:55:09.867Z,25.43
2023-05-21T15:57:36.446Z,25.39
2023-05-21T16:00:03.940Z,25.39
2023-05-21T16:02:30.681Z,25.32
2023-05-21T16:04:57.311Z,25.24
2023-05-21T16:07:24.667Z,25.19
2023-05-21T16:09:51.306Z,25.11
2023-05-21T16:12:18.151Z,25.00
2023-05-21T16:14:44.972Z,24.96
2023-05-21T16:17:11.654Z,24.94
2023-05-21T16:19:39.042Z,24.91
2023-05-21T16:22:05.866Z,24.84
2023-05-21T16:24:32.471Z,24.81
2023-05-21T16:26:59.051Z,24.78
2023-05-21T16:29:25.587Z,24.75
2023-05-21T16:31:52.176Z,24.69
2023-05-21T16:34:18.749Z,24.64
2023-05-21T16:36:45.434Z,24.57
2023-05-21T16:39:11.993Z,24.54
2023-05-21T16:41:38.530Z,24.48
2023-05-21T16:44:05.062Z,24.42
2023-05-21T16:46:31.677Z,24.39
2023-05-21T16:48:58.239Z,24.33
2023-05-21T16:51:24.872Z,24.30
2023-05-21T16:53:51.600Z,24.24
2023-05-21T16:56:18.299Z,24.20
2023-05-21T16:58:44.947Z,24.18
2023-05-21T17:01:11.629Z,24.14
2023-05-21T17:03:39.719Z,24.07
2023-05-21T17:06:07.595Z,24.02
2023-05-21T17:08:34.173Z,23.97
2023-05-21T17:11:00.933Z,23.90
2023-05-21T17:13:27.646Z,23.82
2023-05-21T17:15:54.284Z,23.75
2023-05-21T17:18:20.904Z,23.68
2023-05-21T17:20:47.486Z,23.62
2023-05-21T17:23:14.221Z,23.55
2023-05-21T17:25:41.299Z,23.50
2023-05-21T17:28:08.118Z,23.47
2023-05-21T17:30:34.764Z,23.41
2023-05-21T17:33:03.713Z,23.37
2023-05-21T17:35:30.511Z,23.31
2023-05-21T17:37:57.085Z,23.26
2023-05-21T17:40:24.700Z,23.19
2023-05-21T17:42:52.316Z,23.16
2023-05-21T17:45:19.046Z,23.08
2023-05-21T17:47:45.976Z,23.05
2023-05-21T17:50:12.690Z,22.98
2023-05-21T17:52:39.305Z,22.93
2023-05-21T17:55:06.250Z,22.85
2023-05-21T17:57:32.892Z,22.79
2023-05-21T17:59:59.471Z,22.73
2023-05-21T18:02:27.445Z,22.68
2023-05-21T18:04:54.147Z,22.60
2023-05-21T18:07:22.162Z,22.53
2023-05-21T18:09:48.768Z,22.47
2023-05-21T18:12:15.624Z,22.41
2023-05-21T18:14:42.187Z,22.36
2023-05-21T18:17:08.772Z,22.28
2023-05-21T18:19:35.390Z,22.24
2023-05-21T18:22:02.002Z,22.15
2023-05-21T18:24:28.611Z,22.06
2023-05-21T18:26:55.220Z,21.98
2023-05-21T18:29:21.758Z,21.91
2023-05-21T18:31:48.503Z,21.86
2023-05-21T18:34:16.811Z,21.76
2023-05-21T18:36:43.418Z,21.68
2023-05-21T18:39:10.233Z,21.61
2023-05-21T18:41:37.492Z,21.53
2023-05-21T18:44:06.034Z,21.47
2023-05-21T18:46:32.880Z,21.41
2023-05-21T18:49:00.502Z,21.35
2023-05-21T18:51:27.121Z,21.25
2023-05-21T18:53:53.725Z,21.15
2023-05-21T18:56:21.810Z,21.08
2023-05-21T18:58:48.613Z,20.98
2023-05-21T19:01:15.901Z,20.92
2023-05-21T19:03:42.593Z,20.85
2023-05-21T19:06:09.328Z,20.80
2023-05-21T19:08:35.895Z,20.70
2023-05-21T19:11:02.580Z,20.63
2023-05-21T19:13:29.500Z,20.56
2023-05-21T19:15:57.470Z,20.51
2023-05-21T19:18:30.202Z,20.44
2023-05-21T19:20:57.390Z,20.38
2023-05-21T19:23:24.822Z,20.28
2023-05-21T19:25:51.510Z,20.24
2023-05-21T19:28:18.786Z,20.20
2023-05-21T19:30:46.401Z,20.11
2023-05-21T19:33:13.604Z,20.06
2023-05-21T19:35:41.959Z,20.00
2023-05-21T19:38:11.408Z,19.94
2023-05-21T19:40:38.626Z,19.89
2023-05-21T19:43:05.562Z,19.82
2023-05-21T19:45:32.369Z,19.78
2023-05-21T19:47:59.807Z,19.71
2023-05-21T19:50:28.635Z,19.65
2023-05-21T19:52:57.294Z,19.56
2023-05-21T19:55:24.748Z,19.53
2023-05-21T19:57:51.550Z,19.48
2023-05-21T20:00:18.874Z,19.44
2023-05-21T20:02:46.008Z,19.36
2023-05-21T20:05:12.741Z,19.33
2023-05-21T20:07:39.636Z,19.27
2023-05-21T20:10:07.003Z,19.22
2023-05-21T20:12:33.600Z,19.15
2023-05-21T20:15:00.904Z,19.09
2023-05-21T20:17:28.669Z,19.04
2023-05-21T20:19:57.245Z,19.01
2023-05-21T20:22:23.850Z,18.98
2023-05-21T20:24:50.706Z,18.91
2023-05-21T20:27:19.488Z,18.88
2023-05-21T20:29:46.820Z,18.82
2023-05-21T20:32:13.473Z,18.84
2023-05-21T20:34:54.265Z,18.77
2023-05-21T20:37:29.192Z,18.69
2023-05-21T20:39:58.008Z,18.61
2023-05-21T20:42:28.786Z,18.56
2023-05-21T20:44:58.823Z,18.50
2023-05-21T20:47:29.695Z,18.45
2023-05-21T20:49:59.846Z,18.39
2023-05-21T20:52:26.820Z,18.32
2023-05-21T20:54:59.399Z,18.31
2023-05-21T20:57:28.358Z,18.25
2023-05-21T20:59:54.906Z,18.22
2023-05-21T21:02:22.868Z,18.17
2023-05-21T21:04:50.653Z,18.10
2023-05-21T21:07:20.777Z,18.06
2023-05-21T21:09:48.888Z,18.00
2023-05-21T21:12:25.796Z,17.97
2023-05-21T21:14:52.998Z,17.90
2023-05-21T21:17:19.642Z,17.86
2023-05-21T21:19:46.289Z,17.80
2023-05-21T21:22:12.990Z,17.78
2023-05-21T21:24:39.596Z,17.77
2023-05-21T21:27:06.697Z,17.71
2023-05-21T21:29:33.230Z,17.66
2023-05-21T21:31:59.818Z,17.58
2023-05-21T21:34:26.432Z,17.53
2023-05-21T21:36:54.062Z,17.48
2023-05-21T21:39:20.768Z,17.41
2023-05-21T21:41:47.430Z,17.36
2023-05-21T21:44:14.046Z,17.30
2023-05-21T21:46:40.827Z,17.26
2023-05-21T21:49:07.344Z,17.27
2023-05-21T21:51:34.122Z,17.25
2023-05-21T21:54:00.750Z,17.18
2023-05-21T21:56:27.366Z,17.17
2023-05-21T21:58:53.935Z,17.17
2023-05-21T22:01:20.619Z,17.13
2023-05-21T22:03:47.185Z,17.11
2023-05-21T22:06:13.762Z,17.09
2023-05-21T22:08:40.322Z,17.03
2023-05-21T22:11:07.123Z,16.95
2023-05-21T22:13:34.416Z,16.95
2023-05-21T22:16:02.050Z,16.89
2023-05-21T22:18:40.218Z,16.90
2023-05-21T22:21:09.784Z,16.84
2023-05-21T22:23:37.159Z,16.79
2023-05-21T22:26:03.882Z,16.76
2023-05-21T22:28:30.524Z,16.71
2023-05-21T22:30:57.298Z,16.68
2023-05-21T22:33:24.433Z,16.63
2023-05-21T22:35:51.171Z,16.57
2023-05-21T22:38:18.052Z,16.46
2023-05-21T22:40:44.704Z,16.37
2023-05-21T22:43:11.383Z,16.25
2023-05-21T22:45:38.397Z,16.11
2023-05-21T22:48:08.498Z,16.00
2023-05-21T22:50:36.081Z,15.87
2023-05-21T22:53:02.911Z,15.80
2023-05-21T22:55:29.580Z,15.73
2023-05-21T22:57:56.217Z,15.64
2023-05-21T23:00:22.952Z,15.62
2023-05-21T23:02:52.138Z,15.61
2023-05-21T23:05:20.505Z,15.62
2023-05-21T23:07:47.120Z,15.60
2023-05-21T23:10:13.683Z,15.51
2023-05-21T23:12:40.962Z,15.41
2023-05-21T23:15:09.747Z,15.34
2023-05-21T23:17:37.056Z,15.24
2023-05-21T23:20:04.085Z,15.17
2023-05-21T23:22:30.651Z,15.14
2023-05-21T23:24:57.242Z,15.17
2023-05-21T23:27:24.019Z,15.24
2023-05-21T23:29:50.698Z,15.33
2023-05-21T23:32:17.883Z,15.44
2023-05-21T23:34:44.734Z,15.60
2023-05-21T23:37:11.379Z,15.66
2023-05-21T23:39:38.049Z,15.76
2023-05-21T23:42:04.978Z,15.82
2023-05-21T23:44:31.531Z,15.84
2023-05-21T23:46:58.142Z,15.83
2023-05-21T23:49:24.689Z,15.90
2023-05-21T23:51:51.446Z,15.90
2023-05-21T23:54:18.186Z,15.90
2023-05-21T23:56:45.381Z,15.90
2023-05-21T23:59:12.050Z,15.95
